Time;durP1;ratioP1;P1;durP2;ratioP2;P2;SDS_P1;SDS_P2;PMS_P1;PMS_P2;Temp;Humidity;BMP_temperature;BMP_pressure;BME280_temperature;BME280_humidity;BME280_pressure;Samples;Min_cycle;Max_cycle;Signal;HPM_P1;HPM_P2
2021/07/05 00:01:43;;;;;;;5.13;3.38;;;;;;;;;;5044897;28;20263;-65
2021/07/05 00:04:10;;;;;;;4.85;2.90;;;;;;;;;;5052119;28;20025;-65
2021/07/05 00:06:35;;;;;;;6.85;3.22;;;;;;;;;;5054660;28;20045;-65
2021/07/05 00:09:00;;;;;;;10.07;3.00;;;;;;;;;;5055673;28;20028;-65
2021/07/05 00:11:26;;;;;;;10.73;3.20;;;;;;;;;;5055326;28;20296;-64
2021/07/05 00:13:51;;;;;;;5.33;3.03;;;;;;;;;;5054887;28;20751;-65
2021/07/05 00:16:16;;;;;;;5.23;2.67;;;;;;;;;;5033331;28;20311;-65
2021/07/05 00:18:41;;;;;;;5.45;2.92;;;;;;;;;;5043765;28;20287;-65
2021/07/05 00:21:06;;;;;;;4.45;2.58;;;;;;;;;;5052535;28;20254;-65
2021/07/05 00:23:32;;;;;;;13.30;2.88;;;;;;;;;;5051437;28;20047;-65
2021/07/05 00:25:57;;;;;;;7.67;2.57;;;;;;;;;;5051978;28;20017;-65
2021/07/05 00:28:22;;;;;;;4.40;2.03;;;;;;;;;;5051862;28;20260;-65
2021/07/05 00:30:47;;;;;;;7.32;2.85;;;;;;;;;;5050685;28;20290;-65
2021/07/05 00:33:13;;;;;;;5.53;2.67;;;;;;;;;;5052217;28;20175;-65
2021/07/05 00:35:38;;;;;;;8.55;2.40;;;;;;;;;;5051143;28;20056;-65
2021/07/05 00:38:03;;;;;;;6.35;2.13;;;;;;;;;;5051459;28;20017;-65
2021/07/05 00:40:29;;;;;;;3.10;2.40;;;;;;;;;;5051841;28;20462;-65
2021/07/05 00:42:55;;;;;;;3.65;2.60;;;;;;;;;;5048983;28;20281;-65
2021/07/05 00:45:21;;;;;;;3.72;2.60;;;;;;;;;;5051791;28;20027;-64
2021/07/05 00:47:47;;;;;;;4.45;2.28;;;;;;;;;;5051523;28;20103;-65
2021/07/05 00:50:13;;;;;;;2.78;2.17;;;;;;;;;;5052140;28;20024;-65
2021/07/05 00:52:39;;;;;;;4.85;2.00;;;;;;;;;;5051913;28;20036;-65
2021/07/05 00:55:07;;;;;;;5.88;2.20;;;;;;;;;;5051730;28;20109;-65
2021/07/05 00:57:32;;;;;;;5.90;1.88;;;;;;;;;;5050763;28;20032;-65
2021/07/05 00:59:58;;;;;;;3.05;2.38;;;;;;;;;;5049907;28;20029;-65
2021/07/05 01:02:24;;;;;;;8.73;2.40;;;;;;;;;;5049170;28;20515;-65
2021/07/05 01:04:49;;;;;;;9.00;2.30;;;;;;;;;;5051970;28;20103;-64
2021/07/05 01:07:15;;;;;;;2.97;2.05;;;;;;;;;;5052225;28;20100;-64
2021/07/05 01:09:41;;;;;;;4.00;1.80;;;;;;;;;;5051032;28;20047;-65
2021/07/05 01:12:07;;;;;;;6.07;2.58;;;;;;;;;;5048224;28;20021;-65
2021/07/05 01:14:32;;;;;;;5.05;1.90;;;;;;;;;;5051759;28;20032;-65
2021/07/05 01:16:57;;;;;;;4.10;2.10;;;;;;;;;;5051549;28;20469;-65
2021/07/05 01:19:23;;;;;;;9.20;2.15;;;;;;;;;;5051656;28;20283;-65
2021/07/05 01:21:48;;;;;;;6.97;3.22;;;;;;;;;;5051574;28;20024;-65
2021/07/05 01:24:13;;;;;;;4.27;2.23;;;;;;;;;;5050077;28;20021;-65
2021/07/05 01:26:38;;;;;;;4.60;2.17;;;;;;;;;;5050827;28;20268;-65
2021/07/05 01:29:03;;;;;;;7.47;2.53;;;;;;;;;;5051283;28;20071;-65
2021/07/05 01:31:29;;;;;;;3.17;2.20;;;;;;;;;;5051033;28;20748;-64
2021/07/05 01:33:55;;;;;;;6.82;1.90;;;;;;;;;;5047974;28;20350;-64
2021/07/05 01:36:20;;;;;;;3.58;1.60;;;;;;;;;;5050340;28;20056;-65
2021/07/05 01:38:46;;;;;;;3.28;2.10;;;;;;;;;;5050558;28;20067;-65
2021/07/05 01:41:11;;;;;;;10.82;2.97;;;;;;;;;;5045485;28;20049;-65
2021/07/05 01:43:36;;;;;;;4.18;2.15;;;;;;;;;;5057559;28;20127;-65
2021/07/05 01:46:01;;;;;;;4.47;1.58;;;;;;;;;;5051477;28;21584;-65
2021/07/05 01:48:27;;;;;;;3.72;1.73;;;;;;;;;;5050876;28;20442;-65
2021/07/05 01:50:53;;;;;;;7.38;1.75;;;;;;;;;;5051162;28;20021;-64
2021/07/05 01:53:19;;;;;;;9.98;1.60;;;;;;;;;;5051487;28;20021;-65
2021/07/05 01:55:45;;;;;;;2.65;1.73;;;;;;;;;;5032910;28;20047;-64
2021/07/05 01:58:10;;;;;;;15.05;2.05;;;;;;;;;;5050346;28;20017;-65
2021/07/05 02:00:36;;;;;;;3.03;1.63;;;;;;;;;;5050131;28;20481;-65
2021/07/05 02:03:02;;;;;;;7.32;1.83;;;;;;;;;;5050951;28;20020;-65
2021/07/05 02:05:27;;;;;;;7.13;2.08;;;;;;;;;;5050519;28;20016;-65
2021/07/05 02:07:53;;;;;;;8.02;1.95;;;;;;;;;;5050195;28;20572;-65
2021/07/05 02:10:21;;;;;;;6.05;1.77;;;;;;;;;;5050545;28;20123;-65
2021/07/05 02:12:46;;;;;;;4.07;2.00;;;;;;;;;;5050457;28;20040;-64
2021/07/05 02:15:13;;;;;;;4.38;2.03;;;;;;;;;;5050391;28;20425;-64
2021/07/05 02:17:38;;;;;;;8.70;1.80;;;;;;;;;;5042967;28;20040;-64
2021/07/05 02:20:05;;;;;;;3.25;1.48;;;;;;;;;;5050710;28;20388;-65
2021/07/05 02:22:30;;;;;;;6.10;2.50;;;;;;;;;;5050570;28;20024;-65
2021/07/05 02:24:55;;;;;;;4.57;2.10;;;;;;;;;;5041451;28;20013;-64
2021/07/05 02:27:20;;;;;;;7.30;2.20;;;;;;;;;;5048519;28;20017;-65
2021/07/05 02:29:45;;;;;;;5.17;1.97;;;;;;;;;;5050385;28;20098;-65
2021/07/05 02:32:11;;;;;;;3.60;2.00;;;;;;;;;;5046887;28;20309;-64
2021/07/05 02:34:36;;;;;;;7.05;1.73;;;;;;;;;;5048271;28;20346;-65
2021/07/05 02:37:01;;;;;;;10.60;1.80;;;;;;;;;;5049410;28;20028;-64
2021/07/05 02:39:26;;;;;;;4.82;1.67;;;;;;;;;;5049439;28;20363;-64
2021/07/05 02:41:51;;;;;;;12.33;2.20;;;;;;;;;;5049961;28;20029;-64
2021/07/05 02:44:17;;;;;;;7.40;1.70;;;;;;;;;;5050303;28;20608;-64
2021/07/05 02:46:42;;;;;;;4.03;1.90;;;;;;;;;;5049501;28;20039;-65
2021/07/05 02:49:07;;;;;;;2.70;2.07;;;;;;;;;;5050229;28;20271;-64
2021/07/05 02:51:32;;;;;;;8.25;2.17;;;;;;;;;;5050109;28;20270;-65
2021/07/05 02:53:57;;;;;;;3.45;1.90;;;;;;;;;;5049652;28;20034;-65
2021/07/05 02:56:23;;;;;;;2.47;1.88;;;;;;;;;;5049438;28;20033;-64
2021/07/05 02:58:48;;;;;;;2.88;1.83;;;;;;;;;;5050105;28;20036;-65
2021/07/05 03:01:13;;;;;;;2.72;1.92;;;;;;;;;;5049710;28;20098;-65
2021/07/05 03:03:39;;;;;;;8.88;2.40;;;;;;;;;;5049352;28;20013;-65
2021/07/05 03:06:04;;;;;;;2.60;2.03;;;;;;;;;;5049155;28;20052;-64
2021/07/05 03:08:29;;;;;;;5.22;1.88;;;;;;;;;;5045128;28;20021;-65
2021/07/05 03:10:54;;;;;;;3.47;1.77;;;;;;;;;;5049863;28;20041;-64
2021/07/05 03:13:20;;;;;;;5.07;1.63;;;;;;;;;;5049321;28;20041;-65
2021/07/05 03:15:45;;;;;;;3.97;2.30;;;;;;;;;;5048854;28;20028;-65
2021/07/05 03:18:11;;;;;;;2.53;1.85;;;;;;;;;;5048666;28;20065;-65
2021/07/05 03:20:38;;;;;;;3.22;1.95;;;;;;;;;;5049411;28;20089;-65
2021/07/05 03:23:05;;;;;;;3.78;2.53;;;;;;;;;;5049805;28;20488;-64
2021/07/05 03:25:31;;;;;;;3.22;1.88;;;;;;;;;;5049254;28;20025;-65
2021/07/05 03:27:57;;;;;;;4.40;2.03;;;;;;;;;;5049492;28;20017;-65
2021/07/05 03:30:23;;;;;;;11.32;2.17;;;;;;;;;;5048993;28;20024;-65
2021/07/05 03:32:48;;;;;;;5.53;2.25;;;;;;;;;;5048626;28;20033;-64
2021/07/05 03:35:15;;;;;;;4.80;2.13;;;;;;;;;;5049404;28;20025;-65
2021/07/05 03:37:40;;;;;;;2.10;1.48;;;;;;;;;;5048925;28;20032;-64
2021/07/05 03:40:07;;;;;;;2.17;1.60;;;;;;;;;;5046392;28;20033;-64
2021/07/05 03:42:32;;;;;;;5.80;2.08;;;;;;;;;;5049548;28;20024;-64
2021/07/05 03:44:58;;;;;;;6.70;2.08;;;;;;;;;;5048667;28;20025;-64
2021/07/05 03:47:23;;;;;;;3.72;1.60;;;;;;;;;;5045742;28;20019;-64
2021/07/05 03:49:48;;;;;;;3.63;2.07;;;;;;;;;;5050420;28;20028;-65
2021/07/05 03:52:13;;;;;;;4.07;1.97;;;;;;;;;;5053271;28;20279;-64
2021/07/05 03:54:39;;;;;;;8.45;2.15;;;;;;;;;;5037329;28;20300;-64
2021/07/05 03:57:04;;;;;;;7.15;1.90;;;;;;;;;;5053234;28;20112;-64
2021/07/05 03:59:30;;;;;;;3.00;2.10;;;;;;;;;;5051907;28;20024;-65
2021/07/05 04:01:55;;;;;;;6.13;3.58;;;;;;;;;;5053332;28;20013;-64
2021/07/05 04:04:20;;;;;;;1.17;0.95;;;;;;;;;;5052445;28;20466;-64
2021/07/05 04:06:46;;;;;;;5.38;1.92;;;;;;;;;;5052950;28;20466;-65
2021/07/05 04:09:11;;;;;;;3.97;1.15;;;;;;;;;;5051534;28;20017;-64
2021/07/05 04:11:37;;;;;;;4.83;1.47;;;;;;;;;;5052566;28;20358;-65
2021/07/05 04:14:02;;;;;;;4.65;2.15;;;;;;;;;;5052670;28;20271;-65
2021/07/05 04:16:27;;;;;;;25.23;3.40;;;;;;;;;;5048053;28;20436;-66
2021/07/05 04:18:53;;;;;;;6.63;1.53;;;;;;;;;;5052707;28;20040;-66
2021/07/05 04:21:20;;;;;;;6.63;2.97;;;;;;;;;;5052583;28;20292;-66
2021/07/05 04:23:46;;;;;;;10.05;3.03;;;;;;;;;;5036877;28;20009;-66
2021/07/05 04:26:11;;;;;;;7.95;3.30;;;;;;;;;;5052037;28;20032;-66
2021/07/05 04:28:36;;;;;;;9.23;3.63;;;;;;;;;;5052545;28;20043;-66
2021/07/05 04:31:02;;;;;;;4.00;1.40;;;;;;;;;;5051502;28;20274;-66
2021/07/05 04:33:27;;;;;;;4.03;1.40;;;;;;;;;;5052044;28;20079;-65
2021/07/05 04:35:53;;;;;;;2.38;0.95;;;;;;;;;;5052201;28;20020;-65
2021/07/05 04:38:18;;;;;;;3.22;1.00;;;;;;;;;;5051223;28;20078;-65
2021/07/05 04:40:43;;;;;;;2.05;1.08;;;;;;;;;;5052136;28;20025;-65
2021/07/05 04:43:09;;;;;;;3.70;1.00;;;;;;;;;;5051814;28;20045;-65
2021/07/05 04:45:34;;;;;;;3.53;1.20;;;;;;;;;;5051038;28;20091;-65
2021/07/05 04:48:01;;;;;;;5.65;1.30;;;;;;;;;;5051355;28;20477;-65
2021/07/05 04:50:26;;;;;;;6.55;1.42;;;;;;;;;;5051616;28;20457;-65
2021/07/05 04:52:52;;;;;;;3.30;1.35;;;;;;;;;;5051918;28;20040;-65
2021/07/05 04:55:17;;;;;;;5.93;1.60;;;;;;;;;;5051488;28;20025;-65
2021/07/05 04:57:43;;;;;;;4.70;1.70;;;;;;;;;;5051522;28;20303;-65
2021/07/05 05:00:15;;;;;;;7.38;1.45;;;;;;;;;;5051462;28;20024;-65
2021/07/05 05:02:41;;;;;;;2.58;1.50;;;;;;;;;;5044837;28;20096;-66
2021/07/05 05:05:06;;;;;;;3.60;1.70;;;;;;;;;;5051648;28;20056;-66
2021/07/05 05:07:32;;;;;;;4.55;1.48;;;;;;;;;;5051667;28;20079;-65
2021/07/05 05:10:01;;;;;;;8.73;1.17;;;;;;;;;;5051159;28;20577;-65
2021/07/05 05:12:26;;;;;;;7.00;1.73;;;;;;;;;;5050686;28;20473;-65
2021/07/05 05:14:51;;;;;;;6.68;2.67;;;;;;;;;;5037984;28;20071;-65
2021/07/05 05:17:17;;;;;;;6.23;2.40;;;;;;;;;;5033429;28;20025;-65
2021/07/05 05:19:42;;;;;;;11.00;1.83;;;;;;;;;;5050999;28;20317;-65
2021/07/05 05:22:08;;;;;;;5.50;1.90;;;;;;;;;;5051492;28;20331;-65
2021/07/05 05:24:33;;;;;;;5.68;1.90;;;;;;;;;;5051191;28;20278;-65
2021/07/05 05:26:58;;;;;;;11.35;1.85;;;;;;;;;;5049083;28;20025;-65
2021/07/05 05:29:23;;;;;;;6.85;1.77;;;;;;;;;;5049573;28;20024;-65
2021/07/05 05:31:48;;;;;;;3.08;1.80;;;;;;;;;;5043934;28;20028;-65
2021/07/05 05:34:14;;;;;;;4.87;1.60;;;;;;;;;;5049413;28;20162;-65
2021/07/05 05:36:39;;;;;;;8.77;1.77;;;;;;;;;;5048846;28;20275;-65
2021/07/05 05:39:04;;;;;;;3.73;1.50;;;;;;;;;;5049128;28;20337;-65
2021/07/05 05:41:29;;;;;;;5.13;1.90;;;;;;;;;;5048831;28;20823;-66
2021/07/05 05:43:59;;;;;;;4.68;1.58;;;;;;;;;;5049019;28;20021;-65
2021/07/05 05:46:27;;;;;;;6.13;1.70;;;;;;;;;;5044589;28;20018;-65
2021/07/05 05:48:52;;;;;;;5.72;2.08;;;;;;;;;;5038536;28;20029;-65
2021/07/05 05:51:18;;;;;;;8.77;1.80;;;;;;;;;;5048387;28;20039;-65
2021/07/05 05:53:43;;;;;;;7.95;2.10;;;;;;;;;;5048468;28;20264;-65
2021/07/05 05:56:08;;;;;;;4.80;2.08;;;;;;;;;;5048191;28;20032;-65
2021/07/05 05:58:39;;;;;;;5.30;2.25;;;;;;;;;;5049199;28;20452;-65
2021/07/05 06:01:05;;;;;;;10.18;2.22;;;;;;;;;;5049912;28;20021;-65
2021/07/05 06:03:30;;;;;;;4.80;2.05;;;;;;;;;;5049918;28;20070;-65
2021/07/05 06:05:55;;;;;;;3.40;1.85;;;;;;;;;;5052004;28;20028;-65
2021/07/05 06:08:21;;;;;;;3.23;2.00;;;;;;;;;;5050601;28;20017;-65
2021/07/05 06:10:46;;;;;;;8.13;2.30;;;;;;;;;;5050550;28;20791;-65
2021/07/05 06:13:11;;;;;;;4.53;2.50;;;;;;;;;;5049749;28;20283;-65
2021/07/05 06:15:36;;;;;;;3.30;1.92;;;;;;;;;;5050059;28;20303;-65
2021/07/05 06:18:01;;;;;;;7.10;2.33;;;;;;;;;;5049627;28;20024;-65
2021/07/05 06:20:27;;;;;;;2.47;1.65;;;;;;;;;;5049843;28;20056;-65
2021/07/05 06:22:55;;;;;;;6.07;1.88;;;;;;;;;;5050160;28;20070;-65
2021/07/05 06:25:20;;;;;;;6.47;1.83;;;;;;;;;;5048243;28;20405;-65
2021/07/05 06:27:46;;;;;;;4.38;2.40;;;;;;;;;;5050532;28;20021;-65
2021/07/05 06:30:12;;;;;;;8.43;2.08;;;;;;;;;;5047742;28;20094;-65
2021/07/05 06:32:37;;;;;;;4.72;2.50;;;;;;;;;;5050271;28;20036;-64
2021/07/05 06:35:02;;;;;;;5.30;3.00;;;;;;;;;;5047928;28;20044;-65
2021/07/05 06:37:28;;;;;;;6.88;3.92;;;;;;;;;;5048266;28;20457;-65
2021/07/05 06:39:53;;;;;;;12.23;3.17;;;;;;;;;;5049546;28;20039;-65
2021/07/05 06:42:18;;;;;;;6.27;3.47;;;;;;;;;;5049993;28;20036;-65
2021/07/05 06:44:43;;;;;;;4.70;3.20;;;;;;;;;;5049990;28;20259;-65
2021/07/05 06:47:09;;;;;;;16.45;4.30;;;;;;;;;;5038948;28;20014;-65
2021/07/05 06:49:34;;;;;;;9.00;3.33;;;;;;;;;;5030432;28;20025;-65
2021/07/05 06:51:59;;;;;;;5.32;2.50;;;;;;;;;;5030151;28;20283;-65
2021/07/05 06:54:24;;;;;;;5.47;2.60;;;;;;;;;;5030257;28;20036;-65
2021/07/05 06:56:49;;;;;;;8.13;2.60;;;;;;;;;;5030734;28;20648;-65
2021/07/05 06:59:15;;;;;;;5.43;2.83;;;;;;;;;;5046441;28;20067;-65
2021/07/05 07:01:40;;;;;;;10.10;2.80;;;;;;;;;;5045203;28;20267;-65
2021/07/05 07:04:05;;;;;;;5.90;3.10;;;;;;;;;;5049453;28;20810;-65
2021/07/05 07:06:30;;;;;;;9.33;2.53;;;;;;;;;;5050211;28;20109;-65
2021/07/05 07:08:55;;;;;;;8.48;3.90;;;;;;;;;;5050407;28;20305;-65
2021/07/05 07:11:21;;;;;;;16.23;4.07;;;;;;;;;;5048914;28;20013;-65
2021/07/05 07:13:46;;;;;;;9.20;4.23;;;;;;;;;;5048666;28;20100;-65
2021/07/05 07:16:14;;;;;;;9.65;5.15;;;;;;;;;;5047414;28;20294;-65
2021/07/05 07:21:23;;;;;;;11.30;4.03;;;;;;;;;;5041018;28;20086;-65
2021/07/05 07:23:49;;;;;;;13.20;4.50;;;;;;;;;;5046836;28;20025;-65
2021/07/05 07:26:14;;;;;;;6.43;3.28;;;;;;;;;;5045026;28;20022;-65
2021/07/05 07:28:39;;;;;;;9.48;3.30;;;;;;;;;;5048914;28;20106;-65
2021/07/05 07:31:05;;;;;;;8.95;3.83;;;;;;;;;;5046686;28;20021;-65
2021/07/05 07:33:30;;;;;;;7.55;3.72;;;;;;;;;;5051498;28;20024;-65
2021/07/05 07:35:58;;;;;;;6.83;3.47;;;;;;;;;;5051742;28;20023;-65
2021/07/05 07:38:24;;;;;;;8.85;2.92;;;;;;;;;;5051151;28;20275;-65
2021/07/05 07:40:49;;;;;;;16.77;4.32;;;;;;;;;;5052255;28;20083;-65
2021/07/05 07:43:14;;;;;;;8.93;3.38;;;;;;;;;;5052930;28;20439;-65
2021/07/05 07:45:40;;;;;;;9.77;3.75;;;;;;;;;;5051509;28;20044;-65
2021/07/05 07:48:05;;;;;;;14.38;3.90;;;;;;;;;;5050531;28;20028;-65
2021/07/05 07:50:30;;;;;;;11.00;4.63;;;;;;;;;;5049758;28;20091;-65
2021/07/05 07:52:57;;;;;;;5.63;3.13;;;;;;;;;;5050476;28;20025;-65
2021/07/05 07:55:22;;;;;;;11.55;3.75;;;;;;;;;;5050338;28;20029;-65
2021/07/05 07:57:47;;;;;;;10.00;4.60;;;;;;;;;;5050847;28;20063;-65
2021/07/05 08:00:15;;;;;;;7.13;4.05;;;;;;;;;;5049227;28;20025;-65
2021/07/05 08:02:40;;;;;;;8.18;3.03;;;;;;;;;;5045107;28;20013;-65
2021/07/05 08:05:06;;;;;;;8.43;2.90;;;;;;;;;;5053293;28;20013;-65
2021/07/05 08:07:31;;;;;;;8.00;2.40;;;;;;;;;;5050993;28;20022;-65
2021/07/05 08:09:56;;;;;;;9.10;2.70;;;;;;;;;;5053194;28;20025;-65
2021/07/05 08:12:22;;;;;;;10.20;2.57;;;;;;;;;;5051475;28;20029;-65
2021/07/05 08:14:47;;;;;;;7.97;2.42;;;;;;;;;;5049722;28;20628;-65
2021/07/05 08:17:12;;;;;;;9.32;2.08;;;;;;;;;;5051781;28;20104;-65
2021/07/05 08:19:38;;;;;;;16.75;3.78;;;;;;;;;;5045487;28;20082;-65
2021/07/05 08:22:03;;;;;;;10.45;3.25;;;;;;;;;;5050439;28;20023;-65
2021/07/05 08:24:28;;;;;;;11.40;2.80;;;;;;;;;;5047316;28;20033;-65
2021/07/05 08:26:53;;;;;;;8.95;2.80;;;;;;;;;;5050957;28;20025;-65
2021/07/05 08:29:19;;;;;;;7.78;2.65;;;;;;;;;;5051341;28;20029;-65
2021/07/05 08:31:44;;;;;;;10.43;2.83;;;;;;;;;;5045100;28;20021;-65
2021/07/05 08:34:09;;;;;;;6.47;2.30;;;;;;;;;;5052427;28;20025;-65
2021/07/05 08:36:36;;;;;;;5.23;2.27;;;;;;;;;;5048489;28;20345;-65
2021/07/05 08:39:02;;;;;;;10.00;3.28;;;;;;;;;;5050502;28;20284;-65
2021/07/05 08:41:27;;;;;;;9.85;3.65;;;;;;;;;;5046895;28;21047;-65
2021/07/05 08:43:54;;;;;;;8.45;4.32;;;;;;;;;;5047019;28;20017;-65
2021/07/05 08:46:22;;;;;;;9.85;3.58;;;;;;;;;;5042587;28;20025;-65
2021/07/05 08:48:48;;;;;;;11.85;4.25;;;;;;;;;;5046162;28;20070;-65
2021/07/05 08:51:14;;;;;;;16.88;5.00;;;;;;;;;;5050386;28;20021;-65
2021/07/05 08:53:40;;;;;;;10.27;4.22;;;;;;;;;;5052338;28;20518;-65
2021/07/05 08:56:06;;;;;;;9.88;3.90;;;;;;;;;;5048384;28;20029;-65
2021/07/05 08:58:31;;;;;;;13.65;5.50;;;;;;;;;;5049480;28;20017;-65
2021/07/05 09:00:56;;;;;;;14.13;4.45;;;;;;;;;;5049339;28;20063;-65
2021/07/05 09:03:25;;;;;;;8.80;4.47;;;;;;;;;;5042107;28;20052;-65
2021/07/05 09:06:06;;;;;;;10.63;4.25;;;;;;;;;;5051773;28;20017;-65
2021/07/05 09:08:32;;;;;;;7.97;4.45;;;;;;;;;;5051638;28;20032;-65
2021/07/05 09:10:57;;;;;;;15.95;4.60;;;;;;;;;;5049467;28;20071;-65
2021/07/05 09:13:23;;;;;;;13.00;4.22;;;;;;;;;;5050497;28;20025;-65
2021/07/05 09:15:50;;;;;;;15.32;5.53;;;;;;;;;;5046408;28;20025;-65
2021/07/05 09:18:24;;;;;;;13.63;4.10;;;;;;;;;;5047751;28;20425;-65
2021/07/05 09:20:50;;;;;;;11.25;3.95;;;;;;;;;;5042948;28;20025;-65
2021/07/05 09:23:16;;;;;;;9.27;3.55;;;;;;;;;;5042553;28;20030;-65
2021/07/05 09:25:45;;;;;;;8.95;3.60;;;;;;;;;;5044914;28;20013;-65
2021/07/05 09:28:11;;;;;;;9.38;2.38;;;;;;;;;;5040796;28;20017;-65
2021/07/05 09:30:37;;;;;;;13.15;3.60;;;;;;;;;;5050685;28;20035;-65
2021/07/05 09:33:21;;;;;;;9.13;3.42;;;;;;;;;;5051009;28;20405;-65
2021/07/05 09:35:52;;;;;;;9.25;2.95;;;;;;;;;;5048679;28;20470;-65
2021/07/05 09:38:46;;;;;;;5.18;2.72;;;;;;;;;;5048489;28;20106;-64
2021/07/05 09:41:20;;;;;;;15.32;3.33;;;;;;;;;;5036366;28;20037;-65
2021/07/05 09:43:46;;;;;;;17.25;3.83;;;;;;;;;;5040977;28;20112;-64
2021/07/05 09:46:12;;;;;;;16.13;3.92;;;;;;;;;;5045227;28;20067;-65
2021/07/05 09:48:45;;;;;;;11.07;3.38;;;;;;;;;;5049969;28;20102;-64
2021/07/05 09:51:10;;;;;;;11.40;3.25;;;;;;;;;;5048184;28;20021;-65
2021/07/05 09:53:39;;;;;;;5.88;2.35;;;;;;;;;;5045668;28;20036;-65
2021/07/05 09:56:19;;;;;;;10.30;2.60;;;;;;;;;;5048987;28;20025;-65
2021/07/05 09:58:44;;;;;;;14.02;2.17;;;;;;;;;;5044615;28;20022;-65
2021/07/05 10:01:09;;;;;;;8.13;2.60;;;;;;;;;;5044006;28;20013;-65
2021/07/05 10:03:36;;;;;;;17.27;2.45;;;;;;;;;;5044848;28;20026;-65
2021/07/05 10:06:14;;;;;;;8.10;2.33;;;;;;;;;;5042345;28;20605;-64
2021/07/05 10:08:40;;;;;;;11.60;2.63;;;;;;;;;;5045094;28;20028;-65
2021/07/05 10:11:06;;;;;;;10.82;2.25;;;;;;;;;;5040859;28;20017;-65
2021/07/05 10:13:31;;;;;;;7.18;2.35;;;;;;;;;;5048925;28;20477;-65
2021/07/05 10:16:05;;;;;;;6.93;1.60;;;;;;;;;;5045720;28;20067;-65
2021/07/05 10:18:30;;;;;;;6.50;1.67;;;;;;;;;;5048456;28;20028;-65
2021/07/05 10:20:58;;;;;;;5.50;2.10;;;;;;;;;;5047295;28;20033;-65
2021/07/05 10:23:23;;;;;;;3.13;1.05;;;;;;;;;;5048965;28;20340;-65
2021/07/05 10:25:49;;;;;;;5.20;1.48;;;;;;;;;;5042182;28;20352;-64
2021/07/05 10:28:15;;;;;;;6.63;1.55;;;;;;;;;;5044330;28;20056;-65
2021/07/05 10:30:41;;;;;;;5.57;2.33;;;;;;;;;;5046976;28;20049;-65
2021/07/05 10:33:06;;;;;;;8.45;1.85;;;;;;;;;;5062424;22;20076;-66
2021/07/05 10:35:35;;;;;;;4.55;1.75;;;;;;;;;;5024587;28;20103;-66
2021/07/05 10:38:19;;;;;;;5.35;1.40;;;;;;;;;;5021445;28;20021;-66
2021/07/05 10:40:49;;;;;;;3.83;1.50;;;;;;;;;;5026093;28;20428;-66
2021/07/05 10:43:18;;;;;;;8.32;2.33;;;;;;;;;;5034057;28;20084;-67
2021/07/05 10:45:56;;;;;;;5.67;1.67;;;;;;;;;;5030071;28;20029;-66
2021/07/05 10:48:31;;;;;;;5.30;2.13;;;;;;;;;;5016715;28;20053;-65
2021/07/05 10:50:56;;;;;;;7.75;1.55;;;;;;;;;;5009797;28;20032;-65
2021/07/05 10:53:40;;;;;;;2.33;1.50;;;;;;;;;;5009429;28;20402;-67
2021/07/05 10:56:25;;;;;;;15.98;2.17;;;;;;;;;;5009426;28;20026;-67
2021/07/05 10:58:50;;;;;;;4.13;1.63;;;;;;;;;;4991466;28;20034;-66
2021/07/05 11:01:34;;;;;;;8.82;2.00;;;;;;;;;;5016981;28;20013;-67
2021/07/05 11:04:15;;;;;;;8.13;1.75;;;;;;;;;;5013176;28;20018;-66
2021/07/05 11:06:41;;;;;;;3.50;1.50;;;;;;;;;;5011607;28;20025;-66
2021/07/05 11:09:07;;;;;;;17.60;1.95;;;;;;;;;;5009989;28;20022;-66
2021/07/05 11:11:33;;;;;;;5.35;1.60;;;;;;;;;;5010712;28;20026;-67
2021/07/05 11:14:08;;;;;;;4.88;1.17;;;;;;;;;;5014852;28;20398;-66
2021/07/05 11:17:03;;;;;;;11.15;1.85;;;;;;;;;;5009372;28;20065;-66
2021/07/05 11:19:34;;;;;;;6.25;1.70;;;;;;;;;;5008226;28;20786;-67
2021/07/05 11:22:00;;;;;;;4.22;1.17;;;;;;;;;;5009950;28;20021;-67
2021/07/05 11:24:33;;;;;;;3.40;1.38;;;;;;;;;;5016807;28;20390;-67
2021/07/05 11:27:18;;;;;;;4.72;1.10;;;;;;;;;;5011985;28;20033;-66
2021/07/05 11:29:46;;;;;;;9.50;1.42;;;;;;;;;;5012036;28;20040;-66
2021/07/05 11:32:11;;;;;;;10.02;1.40;;;;;;;;;;5010232;28;20382;-67
2021/07/05 11:34:38;;;;;;;3.75;1.30;;;;;;;;;;5008928;28;20026;-67
2021/07/05 11:37:18;;;;;;;2.40;1.10;;;;;;;;;;5015352;28;20036;-67
2021/07/05 11:39:44;;;;;;;5.53;1.30;;;;;;;;;;5009217;28;20029;-67
2021/07/05 11:42:11;;;;;;;4.72;1.42;;;;;;;;;;5010257;28;20053;-66
2021/07/05 11:44:51;;;;;;;3.53;1.42;;;;;;;;;;5009062;28;20482;-66
2021/07/05 11:47:54;;;;;;;4.38;2.08;;;;;;;;;;5015594;28;20236;-67
2021/07/05 11:50:24;;;;;;;5.25;1.27;;;;;;;;;;4988150;28;20022;-66
2021/07/05 11:52:51;;;;;;;8.90;0.90;;;;;;;;;;4987676;28;20110;-67
2021/07/05 11:55:17;;;;;;;3.88;0.98;;;;;;;;;;5006226;28;20033;-68
2021/07/05 11:57:46;;;;;;;5.97;1.20;;;;;;;;;;5010511;28;20096;-67
2021/07/05 12:00:12;;;;;;;4.25;1.30;;;;;;;;;;5012905;28;20018;-66
2021/07/05 12:02:38;;;;;;;3.55;1.15;;;;;;;;;;5016874;28;20112;-66
2021/07/05 12:05:07;;;;;;;5.40;1.10;;;;;;;;;;5008085;28;20110;-68
2021/07/05 12:07:32;;;;;;;1.25;1.00;;;;;;;;;;5010549;28;20033;-66
2021/07/05 12:09:57;;;;;;;4.60;1.33;;;;;;;;;;5009732;28;20033;-67
2021/07/05 12:12:23;;;;;;;2.57;1.00;;;;;;;;;;5012364;28;20273;-67
2021/07/05 12:14:49;;;;;;;4.43;1.27;;;;;;;;;;5013518;28;20265;-66
2021/07/05 12:17:15;;;;;;;6.00;0.80;;;;;;;;;;5017913;28;20108;-66
2021/07/05 12:19:42;;;;;;;3.20;0.88;;;;;;;;;;5013143;28;20058;-67
2021/07/05 12:22:08;;;;;;;3.25;1.00;;;;;;;;;;5014585;28;20022;-66
2021/07/05 12:24:43;;;;;;;2.05;0.90;;;;;;;;;;5012435;28;20028;-69
2021/07/05 12:27:09;;;;;;;2.38;0.88;;;;;;;;;;5020122;28;20022;-66
2021/07/05 12:29:44;;;;;;;2.65;0.90;;;;;;;;;;5009626;28;20052;-67
2021/07/05 12:32:16;;;;;;;2.28;1.00;;;;;;;;;;5011868;28;20108;-66
2021/07/05 12:34:41;;;;;;;4.47;1.60;;;;;;;;;;5012321;28;20088;-66
2021/07/05 12:37:09;;;;;;;3.20;0.97;;;;;;;;;;5012601;28;20030;-66
2021/07/05 12:39:49;;;;;;;4.15;1.10;;;;;;;;;;5011844;28;20277;-66
2021/07/05 12:42:14;;;;;;;;;;;;;;;;;;5012548;28;20024;-66
2021/07/05 12:44:40;;;;;;;5.05;0.88;;;;;;;;;;5011830;28;20000;-66
2021/07/05 12:47:05;;;;;;;1.80;0.80;;;;;;;;;;5010960;28;20136;-67
2021/07/05 12:49:30;;;;;;;6.27;1.03;;;;;;;;;;5012352;28;20029;-67
2021/07/05 12:51:55;;;;;;;2.00;0.90;;;;;;;;;;5012417;28;20264;-67
2021/07/05 12:54:21;;;;;;;2.03;0.68;;;;;;;;;;5017695;28;20310;-66
2021/07/05 12:56:46;;;;;;;1.50;0.73;;;;;;;;;;5014800;28;20099;-66
2021/07/05 12:59:16;;;;;;;0.70;0.50;;;;;;;;;;5009970;28;20538;-66
2021/07/05 13:01:41;;;;;;;1.50;0.77;;;;;;;;;;5012433;28;20257;-67
2021/07/05 13:04:10;;;;;;;1.67;0.57;;;;;;;;;;5016818;28;20026;-67
2021/07/05 13:06:36;;;;;;;3.08;1.05;;;;;;;;;;5010995;28;20387;-67
2021/07/05 13:09:01;;;;;;;2.90;0.65;;;;;;;;;;5011980;28;20128;-68
2021/07/05 13:11:34;;;;;;;2.93;0.97;;;;;;;;;;5031054;28;20176;-68
2021/07/05 13:14:02;;;;;;;2.22;0.68;;;;;;;;;;5032071;28;20473;-67
2021/07/05 13:16:27;;;;;;;2.20;0.60;;;;;;;;;;5029458;28;20044;-67
2021/07/05 13:18:54;;;;;;;1.17;0.60;;;;;;;;;;5026972;28;20466;-67
2021/07/05 13:21:27;;;;;;;3.10;0.80;;;;;;;;;;5013325;28;20268;-66
2021/07/05 13:23:52;;;;;;;5.28;0.88;;;;;;;;;;5015162;28;20018;-67
2021/07/05 13:26:17;;;;;;;1.27;0.77;;;;;;;;;;5011077;28;20375;-68
2021/07/05 13:28:47;;;;;;;2.13;0.63;;;;;;;;;;5011900;28;20505;-67
2021/07/05 13:31:35;;;;;;;1.98;0.82;;;;;;;;;;5014734;28;20345;-67
2021/07/05 13:34:01;;;;;;;2.28;0.68;;;;;;;;;;5011824;28;20127;-69
2021/07/05 13:36:26;;;;;;;4.88;0.80;;;;;;;;;;5012033;28;20021;-67
2021/07/05 13:38:52;;;;;;;1.48;0.80;;;;;;;;;;5018995;28;20022;-68
2021/07/05 13:41:17;;;;;;;3.03;1.08;;;;;;;;;;5020701;28;20087;-67
2021/07/05 13:43:50;;;;;;;3.22;0.75;;;;;;;;;;5026573;28;20459;-67
2021/07/05 13:46:15;;;;;;;4.60;0.82;;;;;;;;;;5011330;28;20109;-66
2021/07/05 13:48:40;;;;;;;3.13;0.50;;;;;;;;;;5011374;28;20022;-67
2021/07/05 13:51:07;;;;;;;2.77;0.67;;;;;;;;;;5010219;28;20032;-67
2021/07/05 13:53:35;;;;;;;1.98;1.27;;;;;;;;;;5016746;28;20744;-67
2021/07/05 13:56:04;;;;;;;6.07;1.00;;;;;;;;;;5017229;28;20068;-68
2021/07/05 13:58:30;;;;;;;1.10;0.80;;;;;;;;;;5026403;28;20033;-68
2021/07/05 14:00:57;;;;;;;7.30;1.00;;;;;;;;;;5015706;28;20065;-66
2021/07/05 14:03:23;;;;;;;0.88;0.60;;;;;;;;;;5009841;28;20018;-67
2021/07/05 14:05:56;;;;;;;4.93;0.93;;;;;;;;;;5011052;28;20386;-68
2021/07/05 14:08:22;;;;;;;4.45;0.98;;;;;;;;;;5011128;28;20078;-68
2021/07/05 14:10:49;;;;;;;5.65;1.05;;;;;;;;;;5013447;28;20168;-66
2021/07/05 14:13:15;;;;;;;3.47;0.82;;;;;;;;;;5010597;28;20018;-66
2021/07/05 14:15:40;;;;;;;4.32;1.00;;;;;;;;;;5010980;28;20036;-67
2021/07/05 14:18:06;;;;;;;4.10;0.80;;;;;;;;;;5010829;28;20018;-67
2021/07/05 14:20:32;;;;;;;1.95;0.75;;;;;;;;;;5010880;28;20105;-67
2021/07/05 14:22:57;;;;;;;7.35;1.58;;;;;;;;;;5010497;28;20062;-66
2021/07/05 14:25:22;;;;;;;2.40;1.00;;;;;;;;;;5010503;28;20057;-67
2021/07/05 14:27:50;;;;;;;5.23;1.07;;;;;;;;;;5010364;28;20265;-67
2021/07/05 14:30:16;;;;;;;5.07;1.02;;;;;;;;;;5009967;28;20623;-67
2021/07/05 14:32:41;;;;;;;1.35;1.00;;;;;;;;;;5010509;28;20217;-67
2021/07/05 14:35:07;;;;;;;1.80;0.90;;;;;;;;;;5010057;28;20482;-67
2021/07/05 14:37:33;;;;;;;7.20;1.20;;;;;;;;;;5010582;28;20014;-66
2021/07/05 14:39:58;;;;;;;2.58;1.73;;;;;;;;;;5010636;28;20044;-67
2021/07/05 14:42:23;;;;;;;2.67;1.03;;;;;;;;;;5010297;28;20018;-68